sensor_id;sensor_type;location;lat;lon;timestamp;P1;durP1;ratioP1;P2;durP2;ratioP2
67442;SDS011;54311;51.726;5.154;2023-04-24T00:00:03;11.25;;;10.07;;
67442;SDS011;54311;51.726;5.154;2023-04-24T00:02:30;12.27;;;11.15;;
67442;SDS011;54311;51.726;5.154;2023-04-24T00:04:57;12.90;;;11.82;;
67442;SDS011;54311;51.726;5.154;2023-04-24T00:07:28;12.80;;;11.75;;
67442;SDS011;54311;51.726;5.154;2023-04-24T00:09:54;13.88;;;12.57;;
67442;SDS011;54311;51.726;5.154;2023-04-24T00:12:19;13.57;;;12.30;;
67442;SDS011;54311;51.726;5.154;2023-04-24T00:14:45;13.15;;;12.10;;
67442;SDS011;54311;51.726;5.154;2023-04-24T00:17:10;12.20;;;11.10;;
67442;SDS011;54311;51.726;5.154;2023-04-24T00:19:35;11.35;;;10.40;;
67442;SDS011;54311;51.726;5.154;2023-04-24T00:22:01;11.35;;;10.45;;
67442;SDS011;54311;51.726;5.154;2023-04-24T00:24:27;11.50;;;10.45;;
67442;SDS011;54311;51.726;5.154;2023-04-24T00:26:52;10.75;;;9.90;;
67442;SDS011;54311;51.726;5.154;2023-04-24T00:29:18;11.98;;;11.00;;
67442;SDS011;54311;51.726;5.154;2023-04-24T00:31:43;12.00;;;11.00;;
67442;SDS011;54311;51.726;5.154;2023-04-24T00:34:09;14.20;;;12.95;;
67442;SDS011;54311;51.726;5.154;2023-04-24T00:36:36;15.85;;;14.40;;
67442;SDS011;54311;51.726;5.154;2023-04-24T00:39:02;18.25;;;16.35;;
67442;SDS011;54311;51.726;5.154;2023-04-24T00:41:27;18.77;;;16.98;;
67442;SDS011;54311;51.726;5.154;2023-04-24T00:43:53;18.92;;;17.10;;
67442;SDS011;54311;51.726;5.154;2023-04-24T00:46:18;20.08;;;18.17;;
67442;SDS011;54311;51.726;5.154;2023-04-24T00:48:44;23.05;;;20.73;;
67442;SDS011;54311;51.726;5.154;2023-04-24T00:51:09;20.88;;;18.83;;
67442;SDS011;54311;51.726;5.154;2023-04-24T00:53:34;21.95;;;17.50;;
67442;SDS011;54311;51.726;5.154;2023-04-24T00:56:00;22.98;;;18.85;;
67442;SDS011;54311;51.726;5.154;2023-04-24T00:58:26;22.92;;;20.50;;
67442;SDS011;54311;51.726;5.154;2023-04-24T01:00:52;21.00;;;18.83;;
67442;SDS011;54311;51.726;5.154;2023-04-24T01:03:19;22.48;;;20.15;;
67442;SDS011;54311;51.726;5.154;2023-04-24T01:05:45;21.05;;;18.85;;
67442;SDS011;54311;51.726;5.154;2023-04-24T01:08:11;20.52;;;18.45;;
67442;SDS011;54311;51.726;5.154;2023-04-24T01:10:36;22.33;;;19.60;;
67442;SDS011;54311;51.726;5.154;2023-04-24T01:13:03;20.30;;;18.15;;
67442;SDS011;54311;51.726;5.154;2023-04-24T01:15:28;25.15;;;18.65;;
67442;SDS011;54311;51.726;5.154;2023-04-24T01:17:53;21.13;;;19.08;;
67442;SDS011;54311;51.726;5.154;2023-04-24T01:20:19;23.00;;;18.05;;
67442;SDS011;54311;51.726;5.154;2023-04-24T01:22:45;20.75;;;18.58;;
67442;SDS011;54311;51.726;5.154;2023-04-24T01:25:11;22.45;;;19.90;;
67442;SDS011;54311;51.726;5.154;2023-04-24T01:27:36;22.83;;;20.38;;
67442;SDS011;54311;51.726;5.154;2023-04-24T01:30:02;24.73;;;21.92;;
67442;SDS011;54311;51.726;5.154;2023-04-24T01:32:28;26.23;;;21.67;;
67442;SDS011;54311;51.726;5.154;2023-04-24T01:34:53;26.52;;;20.85;;
67442;SDS011;54311;51.726;5.154;2023-04-24T01:37:20;22.40;;;20.08;;
67442;SDS011;54311;51.726;5.154;2023-04-24T01:39:45;23.38;;;20.65;;
67442;SDS011;54311;51.726;5.154;2023-04-24T01:42:10;23.10;;;17.92;;
67442;SDS011;54311;51.726;5.154;2023-04-24T01:44:37;22.52;;;19.20;;
67442;SDS011;54311;51.726;5.154;2023-04-24T01:47:02;21.27;;;19.00;;
67442;SDS011;54311;51.726;5.154;2023-04-24T01:49:28;19.48;;;17.48;;
67442;SDS011;54311;51.726;5.154;2023-04-24T01:51:53;21.20;;;18.45;;
67442;SDS011;54311;51.726;5.154;2023-04-24T01:54:19;20.20;;;17.52;;
67442;SDS011;54311;51.726;5.154;2023-04-24T01:56:44;20.40;;;16.92;;
67442;SDS011;54311;51.726;5.154;2023-04-24T01:59:10;18.70;;;16.90;;
67442;SDS011;54311;51.726;5.154;2023-04-24T02:01:36;21.92;;;18.50;;
67442;SDS011;54311;51.726;5.154;2023-04-24T02:04:03;20.05;;;18.17;;
67442;SDS011;54311;51.726;5.154;2023-04-24T02:06:29;20.77;;;18.67;;
67442;SDS011;54311;51.726;5.154;2023-04-24T02:08:56;22.58;;;20.20;;
67442;SDS011;54311;51.726;5.154;2023-04-24T02:11:21;21.63;;;19.42;;
67442;SDS011;54311;51.726;5.154;2023-04-24T02:13:46;24.00;;;21.48;;
67442;SDS011;54311;51.726;5.154;2023-04-24T02:16:12;27.00;;;24.20;;
67442;SDS011;54311;51.726;5.154;2023-04-24T02:18:37;27.42;;;24.17;;
67442;SDS011;54311;51.726;5.154;2023-04-24T02:21:02;25.40;;;22.77;;
67442;SDS011;54311;51.726;5.154;2023-04-24T02:23:28;28.52;;;25.02;;
67442;SDS011;54311;51.726;5.154;2023-04-24T02:25:54;25.95;;;23.15;;
67442;SDS011;54311;51.726;5.154;2023-04-24T02:28:19;28.45;;;24.35;;
67442;SDS011;54311;51.726;5.154;2023-04-24T02:30:44;32.30;;;24.65;;
67442;SDS011;54311;51.726;5.154;2023-04-24T02:33:10;24.50;;;22.00;;
67442;SDS011;54311;51.726;5.154;2023-04-24T02:35:36;25.60;;;21.90;;
67442;SDS011;54311;51.726;5.154;2023-04-24T02:38:02;28.10;;;21.35;;
67442;SDS011;54311;51.726;5.154;2023-04-24T02:40:28;24.15;;;20.75;;
67442;SDS011;54311;51.726;5.154;2023-04-24T02:42:53;26.55;;;22.02;;
67442;SDS011;54311;51.726;5.154;2023-04-24T02:45:18;26.60;;;21.50;;
67442;SDS011;54311;51.726;5.154;2023-04-24T02:47:44;30.42;;;22.35;;
67442;SDS011;54311;51.726;5.154;2023-04-24T02:50:10;28.05;;;24.77;;
67442;SDS011;54311;51.726;5.154;2023-04-24T02:52:36;26.23;;;23.42;;
67442;SDS011;54311;51.726;5.154;2023-04-24T02:55:01;28.30;;;24.17;;
67442;SDS011;54311;51.726;5.154;2023-04-24T02:57:27;28.48;;;22.15;;
67442;SDS011;54311;51.726;5.154;2023-04-24T02:59:53;27.75;;;23.85;;
67442;SDS011;54311;51.726;5.154;2023-04-24T03:02:18;25.55;;;22.58;;
67442;SDS011;54311;51.726;5.154;2023-04-24T03:04:45;24.10;;;21.17;;
67442;SDS011;54311;51.726;5.154;2023-04-24T03:07:12;31.27;;;22.30;;
67442;SDS011;54311;51.726;5.154;2023-04-24T03:09:38;26.83;;;23.23;;
67442;SDS011;54311;51.726;5.154;2023-04-24T03:12:04;30.67;;;22.88;;
67442;SDS011;54311;51.726;5.154;2023-04-24T03:14:29;28.65;;;23.23;;
67442;SDS011;54311;51.726;5.154;2023-04-24T03:16:56;27.25;;;21.67;;
67442;SDS011;54311;51.726;5.154;2023-04-24T03:19:21;30.42;;;22.25;;
67442;SDS011;54311;51.726;5.154;2023-04-24T03:21:46;26.23;;;23.42;;
67442;SDS011;54311;51.726;5.154;2023-04-24T03:24:12;32.58;;;23.58;;
67442;SDS011;54311;51.726;5.154;2023-04-24T03:26:37;27.08;;;21.70;;
67442;SDS011;54311;51.726;5.154;2023-04-24T03:29:03;29.73;;;23.88;;
67442;SDS011;54311;51.726;5.154;2023-04-24T03:31:29;29.48;;;22.80;;
67442;SDS011;54311;51.726;5.154;2023-04-24T03:33:54;30.73;;;23.73;;
67442;SDS011;54311;51.726;5.154;2023-04-24T03:36:20;24.35;;;20.77;;
67442;SDS011;54311;51.726;5.154;2023-04-24T03:38:45;32.35;;;22.35;;
67442;SDS011;54311;51.726;5.154;2023-04-24T03:41:11;28.38;;;20.08;;
67442;SDS011;54311;51.726;5.154;2023-04-24T03:43:36;30.90;;;21.00;;
67442;SDS011;54311;51.726;5.154;2023-04-24T03:46:03;25.77;;;19.35;;
67442;SDS011;54311;51.726;5.154;2023-04-24T03:48:28;26.67;;;20.08;;
67442;SDS011;54311;51.726;5.154;2023-04-24T03:50:54;26.25;;;20.35;;
67442;SDS011;54311;51.726;5.154;2023-04-24T03:53:19;22.58;;;19.02;;
67442;SDS011;54311;51.726;5.154;2023-04-24T03:55:44;25.08;;;19.25;;
67442;SDS011;54311;51.726;5.154;2023-04-24T03:58:10;21.38;;;17.95;;
67442;SDS011;54311;51.726;5.154;2023-04-24T04:00:36;20.20;;;17.90;;
67442;SDS011;54311;51.726;5.154;2023-04-24T04:03:02;21.60;;;17.88;;
67442;SDS011;54311;51.726;5.154;2023-04-24T04:05:28;18.70;;;16.70;;
67442;SDS011;54311;51.726;5.154;2023-04-24T04:07:53;19.40;;;17.40;;
67442;SDS011;54311;51.726;5.154;2023-04-24T04:10:18;18.77;;;15.90;;
67442;SDS011;54311;51.726;5.154;2023-04-24T04:12:44;17.80;;;15.80;;
67442;SDS011;54311;51.726;5.154;2023-04-24T04:15:09;18.42;;;15.30;;
67442;SDS011;54311;51.726;5.154;2023-04-24T04:17:35;16.05;;;14.52;;
67442;SDS011;54311;51.726;5.154;2023-04-24T04:20:00;14.05;;;12.75;;
67442;SDS011;54311;51.726;5.154;2023-04-24T04:22:26;15.45;;;13.48;;
67442;SDS011;54311;51.726;5.154;2023-04-24T04:24:51;13.00;;;11.90;;
67442;SDS011;54311;51.726;5.154;2023-04-24T04:27:16;11.77;;;10.80;;
67442;SDS011;54311;51.726;5.154;2023-04-24T04:29:44;11.48;;;10.52;;
67442;SDS011;54311;51.726;5.154;2023-04-24T04:32:10;9.48;;;8.77;;
67442;SDS011;54311;51.726;5.154;2023-04-24T04:34:35;9.13;;;8.52;;
67442;SDS011;54311;51.726;5.154;2023-04-24T04:37:02;7.97;;;7.30;;
67442;SDS011;54311;51.726;5.154;2023-04-24T04:39:28;7.57;;;7.18;;
67442;SDS011;54311;51.726;5.154;2023-04-24T04:41:54;8.68;;;8.07;;
67442;SDS011;54311;51.726;5.154;2023-04-24T04:44:20;8.82;;;8.00;;
67442;SDS011;54311;51.726;5.154;2023-04-24T04:46:45;8.55;;;7.90;;
67442;SDS011;54311;51.726;5.154;2023-04-24T04:49:11;8.70;;;8.00;;
67442;SDS011;54311;51.726;5.154;2023-04-24T04:51:36;8.20;;;7.50;;
67442;SDS011;54311;51.726;5.154;2023-04-24T04:54:01;7.30;;;6.90;;
67442;SDS011;54311;51.726;5.154;2023-04-24T04:56:27;8.18;;;7.57;;
67442;SDS011;54311;51.726;5.154;2023-04-24T04:58:52;6.60;;;6.13;;
67442;SDS011;54311;51.726;5.154;2023-04-24T05:01:18;6.88;;;6.43;;
67442;SDS011;54311;51.726;5.154;2023-04-24T05:03:43;7.53;;;6.95;;
67442;SDS011;54311;51.726;5.154;2023-04-24T05:06:08;6.25;;;5.55;;
67442;SDS011;54311;51.726;5.154;2023-04-24T05:08:34;4.50;;;4.30;;
67442;SDS011;54311;51.726;5.154;2023-04-24T05:10:59;4.10;;;3.70;;
67442;SDS011;54311;51.726;5.154;2023-04-24T05:13:25;4.10;;;3.80;;
67442;SDS011;54311;51.726;5.154;2023-04-24T05:15:50;3.95;;;3.83;;
67442;SDS011;54311;51.726;5.154;2023-04-24T05:18:16;4.13;;;3.75;;
67442;SDS011;54311;51.726;5.154;2023-04-24T05:20:41;4.18;;;3.88;;
67442;SDS011;54311;51.726;5.154;2023-04-24T05:23:08;3.65;;;3.45;;
67442;SDS011;54311;51.726;5.154;2023-04-24T05:25:34;3.88;;;3.08;;
67442;SDS011;54311;51.726;5.154;2023-04-24T05:28:00;3.30;;;3.20;;
67442;SDS011;54311;51.726;5.154;2023-04-24T05:30:26;3.67;;;3.58;;
67442;SDS011;54311;51.726;5.154;2023-04-24T05:32:52;4.57;;;4.28;;
67442;SDS011;54311;51.726;5.154;2023-04-24T05:35:17;4.45;;;4.28;;
67442;SDS011;54311;51.726;5.154;2023-04-24T05:37:43;4.47;;;4.18;;
67442;SDS011;54311;51.726;5.154;2023-04-24T05:40:09;4.97;;;4.68;;
67442;SDS011;54311;51.726;5.154;2023-04-24T05:42:35;5.07;;;4.80;;
67442;SDS011;54311;51.726;5.154;2023-04-24T05:45:00;5.35;;;5.07;;
67442;SDS011;54311;51.726;5.154;2023-04-24T05:47:26;5.40;;;4.97;;
67442;SDS011;54311;51.726;5.154;2023-04-24T05:49:51;5.43;;;5.15;;
67442;SDS011;54311;51.726;5.154;2023-04-24T05:52:17;5.18;;;4.88;;
67442;SDS011;54311;51.726;5.154;2023-04-24T05:54:42;5.30;;;4.90;;
67442;SDS011;54311;51.726;5.154;2023-04-24T05:57:07;5.60;;;5.40;;
67442;SDS011;54311;51.726;5.154;2023-04-24T05:59:33;7.93;;;6.28;;
67442;SDS011;54311;51.726;5.154;2023-04-24T06:02:00;5.50;;;5.30;;
67442;SDS011;54311;51.726;5.154;2023-04-24T06:04:25;5.43;;;5.03;;
67442;SDS011;54311;51.726;5.154;2023-04-24T06:06:50;4.05;;;3.85;;
67442;SDS011;54311;51.726;5.154;2023-04-24T06:09:20;5.50;;;5.00;;
67442;SDS011;54311;51.726;5.154;2023-04-24T06:11:46;4.18;;;3.90;;
67442;SDS011;54311;51.726;5.154;2023-04-24T06:14:12;4.60;;;4.30;;
67442;SDS011;54311;51.726;5.154;2023-04-24T06:16:37;7.25;;;6.68;;
67442;SDS011;54311;51.726;5.154;2023-04-24T06:19:03;10.07;;;9.38;;
67442;SDS011;54311;51.726;5.154;2023-04-24T06:21:29;13.65;;;12.38;;
67442;SDS011;54311;51.726;5.154;2023-04-24T06:23:54;15.68;;;14.18;;
67442;SDS011;54311;51.726;5.154;2023-04-24T06:26:21;17.08;;;15.10;;
67442;SDS011;54311;51.726;5.154;2023-04-24T06:28:47;20.25;;;15.85;;
67442;SDS011;54311;51.726;5.154;2023-04-24T06:31:12;17.23;;;15.45;;
67442;SDS011;54311;51.726;5.154;2023-04-24T06:33:37;16.45;;;14.73;;
67442;SDS011;54311;51.726;5.154;2023-04-24T06:36:03;17.92;;;14.55;;
67442;SDS011;54311;51.726;5.154;2023-04-24T06:38:29;26.15;;;17.52;;
67442;SDS011;54311;51.726;5.154;2023-04-24T06:40:54;20.65;;;17.52;;
67442;SDS011;54311;51.726;5.154;2023-04-24T06:43:19;27.08;;;17.77;;
67442;SDS011;54311;51.726;5.154;2023-04-24T06:45:45;22.10;;;17.98;;
67442;SDS011;54311;51.726;5.154;2023-04-24T06:48:11;22.67;;;19.15;;
67442;SDS011;54311;51.726;5.154;2023-04-24T06:50:37;27.48;;;19.42;;
67442;SDS011;54311;51.726;5.154;2023-04-24T06:53:02;30.73;;;20.77;;
67442;SDS011;54311;51.726;5.154;2023-04-24T06:55:28;28.92;;;19.23;;
67442;SDS011;54311;51.726;5.154;2023-04-24T06:57:53;30.48;;;19.00;;
67442;SDS011;54311;51.726;5.154;2023-04-24T07:00:18;30.17;;;20.23;;
67442;SDS011;54311;51.726;5.154;2023-04-24T07:02:44;26.92;;;19.55;;
67442;SDS011;54311;51.726;5.154;2023-04-24T07:05:09;27.52;;;18.77;;
67442;SDS011;54311;51.726;5.154;2023-04-24T07:07:35;28.73;;;19.42;;
67442;SDS011;54311;51.726;5.154;2023-04-24T07:10:03;25.45;;;16.80;;
67442;SDS011;54311;51.726;5.154;2023-04-24T07:12:29;29.08;;;19.40;;
67442;SDS011;54311;51.726;5.154;2023-04-24T07:14:54;23.52;;;15.38;;
67442;SDS011;54311;51.726;5.154;2023-04-24T07:17:20;28.08;;;15.55;;
67442;SDS011;54311;51.726;5.154;2023-04-24T07:19:45;27.38;;;13.32;;
67442;SDS011;54311;51.726;5.154;2023-04-24T07:22:11;27.63;;;13.88;;
67442;SDS011;54311;51.726;5.154;2023-04-24T07:24:41;26.50;;;12.15;;
67442;SDS011;54311;51.726;5.154;2023-04-24T07:27:08;16.27;;;11.95;;
67442;SDS011;54311;51.726;5.154;2023-04-24T07:29:33;23.45;;;13.02;;
67442;SDS011;54311;51.726;5.154;2023-04-24T07:31:58;21.83;;;11.23;;
67442;SDS011;54311;51.726;5.154;2023-04-24T07:34:24;23.02;;;11.25;;
67442;SDS011;54311;51.726;5.154;2023-04-24T07:36:49;24.13;;;11.77;;
67442;SDS011;54311;51.726;5.154;2023-04-24T07:39:15;22.55;;;10.48;;
67442;SDS011;54311;51.726;5.154;2023-04-24T07:41:40;23.55;;;10.57;;
67442;SDS011;54311;51.726;5.154;2023-04-24T07:44:05;25.98;;;11.18;;
67442;SDS011;54311;51.726;5.154;2023-04-24T07:46:31;29.83;;;10.70;;
67442;SDS011;54311;51.726;5.154;2023-04-24T07:48:56;21.33;;;9.60;;
67442;SDS011;54311;51.726;5.154;2023-04-24T07:51:22;19.60;;;10.05;;
67442;SDS011;54311;51.726;5.154;2023-04-24T07:53:47;22.55;;;9.80;;
67442;SDS011;54311;51.726;5.154;2023-04-24T07:56:13;21.42;;;9.40;;
67442;SDS011;54311;51.726;5.154;2023-04-24T07:58:38;17.98;;;9.43;;
67442;SDS011;54311;51.726;5.154;2023-04-24T08:01:04;21.67;;;9.63;;
67442;SDS011;54311;51.726;5.154;2023-04-24T08:03:29;17.90;;;8.45;;
67442;SDS011;54311;51.726;5.154;2023-04-24T08:05:55;20.92;;;9.30;;
67442;SDS011;54311;51.726;5.154;2023-04-24T08:08:21;22.23;;;9.10;;
67442;SDS011;54311;51.726;5.154;2023-04-24T08:10:47;27.92;;;9.63;;
67442;SDS011;54311;51.726;5.154;2023-04-24T08:13:12;24.48;;;10.85;;
67442;SDS011;54311;51.726;5.154;2023-04-24T08:15:37;20.83;;;9.60;;
67442;SDS011;54311;51.726;5.154;2023-04-24T08:18:02;26.13;;;9.10;;
67442;SDS011;54311;51.726;5.154;2023-04-24T08:20:28;26.40;;;9.38;;
67442;SDS011;54311;51.726;5.154;2023-04-24T08:22:53;24.15;;;8.55;;
67442;SDS011;54311;51.726;5.154;2023-04-24T08:25:19;19.65;;;8.27;;
67442;SDS011;54311;51.726;5.154;2023-04-24T08:27:45;22.10;;;8.10;;
67442;SDS011;54311;51.726;5.154;2023-04-24T08:30:10;21.08;;;8.38;;
67442;SDS011;54311;51.726;5.154;2023-04-24T08:32:36;23.85;;;7.97;;
67442;SDS011;54311;51.726;5.154;2023-04-24T08:35:02;15.07;;;7.03;;
67442;SDS011;54311;51.726;5.154;2023-04-24T08:37:28;21.58;;;8.02;;
67442;SDS011;54311;51.726;5.154;2023-04-24T08:39:54;17.88;;;7.80;;
67442;SDS011;54311;51.726;5.154;2023-04-24T08:42:19;20.77;;;7.60;;
67442;SDS011;54311;51.726;5.154;2023-04-24T08:44:45;24.40;;;6.88;;
67442;SDS011;54311;51.726;5.154;2023-04-24T08:47:12;21.30;;;6.97;;
67442;SDS011;54311;51.726;5.154;2023-04-24T08:49:37;15.63;;;6.53;;
67442;SDS011;54311;51.726;5.154;2023-04-24T08:52:04;23.75;;;7.13;;
67442;SDS011;54311;51.726;5.154;2023-04-24T08:54:30;23.83;;;7.10;;
67442;SDS011;54311;51.726;5.154;2023-04-24T08:57:00;19.83;;;7.38;;
67442;SDS011;54311;51.726;5.154;2023-04-24T08:59:29;14.60;;;6.20;;
67442;SDS011;54311;51.726;5.154;2023-04-24T09:01:56;15.85;;;6.95;;
67442;SDS011;54311;51.726;5.154;2023-04-24T09:04:22;16.33;;;6.22;;
67442;SDS011;54311;51.726;5.154;2023-04-24T09:06:50;11.63;;;5.80;;
67442;SDS011;54311;51.726;5.154;2023-04-24T09:09:16;19.55;;;6.90;;
67442;SDS011;54311;51.726;5.154;2023-04-24T09:11:43;19.13;;;5.97;;
67442;SDS011;54311;51.726;5.154;2023-04-24T09:14:09;9.10;;;5.35;;
67442;SDS011;54311;51.726;5.154;2023-04-24T09:16:35;11.25;;;5.68;;
67442;SDS011;54311;51.726;5.154;2023-04-24T09:19:00;18.70;;;6.50;;
67442;SDS011;54311;51.726;5.154;2023-04-24T09:21:30;12.38;;;5.72;;
67442;SDS011;54311;51.726;5.154;2023-04-24T09:23:58;17.02;;;6.72;;
67442;SDS011;54311;51.726;5.154;2023-04-24T09:26:24;14.90;;;6.05;;
67442;SDS011;54311;51.726;5.154;2023-04-24T09:28:50;15.52;;;5.80;;
67442;SDS011;54311;51.726;5.154;2023-04-24T09:31:18;10.13;;;5.65;;
67442;SDS011;54311;51.726;5.154;2023-04-24T09:36:30;13.50;;;6.00;;
67442;SDS011;54311;51.726;5.154;2023-04-24T09:39:02;14.57;;;5.78;;
67442;SDS011;54311;51.726;5.154;2023-04-24T09:41:29;10.52;;;5.07;;
67442;SDS011;54311;51.726;5.154;2023-04-24T09:43:55;10.63;;;5.28;;
67442;SDS011;54311;51.726;5.154;2023-04-24T09:46:21;9.82;;;5.20;;
67442;SDS011;54311;51.726;5.154;2023-04-24T09:48:53;9.95;;;5.85;;
67442;SDS011;54311;51.726;5.154;2023-04-24T09:51:18;8.88;;;5.25;;
67442;SDS011;54311;51.726;5.154;2023-04-24T09:53:58;10.40;;;5.07;;
67442;SDS011;54311;51.726;5.154;2023-04-24T09:56:24;8.05;;;4.97;;
67442;SDS011;54311;51.726;5.154;2023-04-24T09:58:51;7.88;;;4.80;;
67442;SDS011;54311;51.726;5.154;2023-04-24T10:01:16;11.57;;;5.32;;
67442;SDS011;54311;51.726;5.154;2023-04-24T10:03:55;7.65;;;4.85;;
67442;SDS011;54311;51.726;5.154;2023-04-24T10:06:20;5.05;;;4.57;;
67442;SDS011;54311;51.726;5.154;2023-04-24T10:08:46;11.45;;;4.93;;
67442;SDS011;54311;51.726;5.154;2023-04-24T10:11:13;8.77;;;5.00;;
67442;SDS011;54311;51.726;5.154;2023-04-24T10:13:39;8.75;;;4.93;;
67442;SDS011;54311;51.726;5.154;2023-04-24T10:16:06;5.78;;;3.65;;
67442;SDS011;54311;51.726;5.154;2023-04-24T10:18:33;3.95;;;3.53;;
67442;SDS011;54311;51.726;5.154;2023-04-24T10:20:59;5.18;;;3.30;;
67442;SDS011;54311;51.726;5.154;2023-04-24T10:23:25;5.90;;;3.28;;
67442;SDS011;54311;51.726;5.154;2023-04-24T10:25:50;5.45;;;3.60;;
67442;SDS011;54311;51.726;5.154;2023-04-24T10:28:16;4.40;;;3.60;;
67442;SDS011;54311;51.726;5.154;2023-04-24T10:30:43;4.18;;;3.35;;
67442;SDS011;54311;51.726;5.154;2023-04-24T10:33:08;3.38;;;3.15;;
67442;SDS011;54311;51.726;5.154;2023-04-24T10:35:34;4.32;;;2.90;;
67442;SDS011;54311;51.726;5.154;2023-04-24T10:38:24;3.65;;;3.30;;
67442;SDS011;54311;51.726;5.154;2023-04-24T10:40:50;4.82;;;3.20;;
67442;SDS011;54311;51.726;5.154;2023-04-24T10:43:16;3.78;;;3.47;;
67442;SDS011;54311;51.726;5.154;2023-04-24T10:45:59;8.25;;;2.90;;
67442;SDS011;54311;51.726;5.154;2023-04-24T10:48:28;4.57;;;3.08;;
67442;SDS011;54311;51.726;5.154;2023-04-24T10:50:54;4.85;;;3.22;;
67442;SDS011;54311;51.726;5.154;2023-04-24T10:53:20;7.25;;;3.50;;
67442;SDS011;54311;51.726;5.154;2023-04-24T10:55:51;7.70;;;3.13;;
67442;SDS011;54311;51.726;5.154;2023-04-24T10:58:22;6.25;;;3.13;;
67442;SDS011;54311;51.726;5.154;2023-04-24T11:00:57;3.50;;;3.22;;
67442;SDS011;54311;51.726;5.154;2023-04-24T11:03:25;4.00;;;2.78;;
67442;SDS011;54311;51.726;5.154;2023-04-24T11:06:04;3.47;;;3.17;;
67442;SDS011;54311;51.726;5.154;2023-04-24T11:08:32;4.53;;;3.35;;
67442;SDS011;54311;51.726;5.154;2023-04-24T11:11:08;4.22;;;3.60;;
67442;SDS011;54311;51.726;5.154;2023-04-24T11:16:28;5.00;;;3.80;;
67442;SDS011;54311;51.726;5.154;2023-04-24T11:21:39;6.65;;;3.42;;
67442;SDS011;54311;51.726;5.154;2023-04-24T11:24:24;9.77;;;3.33;;
67442;SDS011;54311;51.726;5.154;2023-04-24T11:26:51;5.13;;;3.25;;
67442;SDS011;54311;51.726;5.154;2023-04-24T11:29:19;4.38;;;3.58;;
67442;SDS011;54311;51.726;5.154;2023-04-24T11:31:45;5.28;;;3.00;;
67442;SDS011;54311;51.726;5.154;2023-04-24T11:34:16;7.15;;;3.70;;
67442;SDS011;54311;51.726;5.154;2023-04-24T11:36:42;4.25;;;3.63;;
67442;SDS011;54311;51.726;5.154;2023-04-24T11:39:08;7.85;;;3.15;;
67442;SDS011;54311;51.726;5.154;2023-04-24T11:41:35;5.07;;;3.40;;
67442;SDS011;54311;51.726;5.154;2023-04-24T11:44:00;11.55;;;4.80;;
67442;SDS011;54311;51.726;5.154;2023-04-24T11:46:29;5.88;;;3.42;;
67442;SDS011;54311;51.726;5.154;2023-04-24T11:48:56;7.75;;;3.53;;
67442;SDS011;54311;51.726;5.154;2023-04-24T11:51:22;9.93;;;3.40;;
67442;SDS011;54311;51.726;5.154;2023-04-24T11:53:50;5.68;;;3.60;;
67442;SDS011;54311;51.726;5.154;2023-04-24T11:56:18;7.10;;;3.55;;
67442;SDS011;54311;51.726;5.154;2023-04-24T11:58:44;7.03;;;4.05;;
67442;SDS011;54311;51.726;5.154;2023-04-24T12:01:10;5.15;;;3.13;;
67442;SDS011;54311;51.726;5.154;2023-04-24T12:03:35;9.70;;;3.47;;
67442;SDS011;54311;51.726;5.154;2023-04-24T12:06:04;9.57;;;3.67;;
67442;SDS011;54311;51.726;5.154;2023-04-24T12:08:33;5.93;;;3.20;;
67442;SDS011;54311;51.726;5.154;2023-04-24T12:11:03;6.13;;;3.45;;
67442;SDS011;54311;51.726;5.154;2023-04-24T12:13:29;8.50;;;4.97;;
67442;SDS011;54311;51.726;5.154;2023-04-24T12:15:56;6.22;;;3.30;;
67442;SDS011;54311;51.726;5.154;2023-04-24T12:18:22;6.30;;;3.50;;
67442;SDS011;54311;51.726;5.154;2023-04-24T12:20:48;5.13;;;3.55;;
67442;SDS011;54311;51.726;5.154;2023-04-24T12:23:13;6.72;;;3.50;;
67442;SDS011;54311;51.726;5.154;2023-04-24T12:25:40;5.78;;;3.50;;
67442;SDS011;54311;51.726;5.154;2023-04-24T12:30:32;12.00;;;3.85;;
67442;SDS011;54311;51.726;5.154;2023-04-24T12:33:09;7.32;;;3.63;;
67442;SDS011;54311;51.726;5.154;2023-04-24T12:35:35;4.68;;;4.00;;
67442;SDS011;54311;51.726;5.154;2023-04-24T12:38:06;4.32;;;3.65;;
67442;SDS011;54311;51.726;5.154;2023-04-24T12:40:33;7.78;;;4.50;;
67442;SDS011;54311;51.726;5.154;2023-04-24T12:42:58;7.53;;;4.10;;
67442;SDS011;54311;51.726;5.154;2023-04-24T12:45:23;8.93;;;3.80;;
67442;SDS011;54311;51.726;5.154;2023-04-24T12:47:50;9.35;;;4.13;;
67442;SDS011;54311;51.726;5.154;2023-04-24T12:50:15;5.30;;;3.85;;
67442;SDS011;54311;51.726;5.154;2023-04-24T12:52:41;6.38;;;3.78;;
67442;SDS011;54311;51.726;5.154;2023-04-24T12:55:07;5.22;;;3.67;;
67442;SDS011;54311;51.726;5.154;2023-04-24T12:57:34;7.35;;;4.70;;
67442;SDS011;54311;51.726;5.154;2023-04-24T13:00:00;6.55;;;3.92;;
67442;SDS011;54311;51.726;5.154;2023-04-24T13:02:27;4.47;;;3.72;;
67442;SDS011;54311;51.726;5.154;2023-04-24T13:04:55;9.82;;;4.25;;
67442;SDS011;54311;51.726;5.154;2023-04-24T13:07:20;5.65;;;3.72;;
67442;SDS011;54311;51.726;5.154;2023-04-24T13:09:47;5.32;;;4.10;;
67442;SDS011;54311;51.726;5.154;2023-04-24T13:12:13;7.60;;;3.95;;
67442;SDS011;54311;51.726;5.154;2023-04-24T13:14:39;6.20;;;3.30;;
67442;SDS011;54311;51.726;5.154;2023-04-24T13:17:04;5.35;;;3.55;;
67442;SDS011;54311;51.726;5.154;2023-04-24T13:19:34;4.57;;;3.75;;
67442;SDS011;54311;51.726;5.154;2023-04-24T13:22:04;5.28;;;3.15;;
67442;SDS011;54311;51.726;5.154;2023-04-24T13:24:30;5.97;;;3.35;;
67442;SDS011;54311;51.726;5.154;2023-04-24T13:26:56;2.92;;;2.72;;
67442;SDS011;54311;51.726;5.154;2023-04-24T13:29:22;3.55;;;3.20;;
67442;SDS011;54311;51.726;5.154;2023-04-24T13:31:47;3.88;;;3.30;;
67442;SDS011;54311;51.726;5.154;2023-04-24T13:34:13;5.80;;;3.58;;
67442;SDS011;54311;51.726;5.154;2023-04-24T13:36:38;3.78;;;3.42;;
67442;SDS011;54311;51.726;5.154;2023-04-24T13:39:04;6.72;;;3.53;;
67442;SDS011;54311;51.726;5.154;2023-04-24T13:41:30;4.45;;;3.80;;
67442;SDS011;54311;51.726;5.154;2023-04-24T13:43:56;7.00;;;3.60;;
67442;SDS011;54311;51.726;5.154;2023-04-24T13:46:21;5.78;;;4.30;;
67442;SDS011;54311;51.726;5.154;2023-04-24T13:48:46;5.65;;;3.85;;
67442;SDS011;54311;51.726;5.154;2023-04-24T13:51:12;10.88;;;3.65;;
67442;SDS011;54311;51.726;5.154;2023-04-24T13:53:37;6.68;;;3.70;;
67442;SDS011;54311;51.726;5.154;2023-04-24T13:56:03;7.93;;;3.78;;
67442;SDS011;54311;51.726;5.154;2023-04-24T13:58:30;8.65;;;4.30;;
67442;SDS011;54311;51.726;5.154;2023-04-24T14:00:55;5.68;;;4.20;;
67442;SDS011;54311;51.726;5.154;2023-04-24T14:03:21;7.18;;;3.85;;
67442;SDS011;54311;51.726;5.154;2023-04-24T14:05:46;9.50;;;4.45;;
67442;SDS011;54311;51.726;5.154;2023-04-24T14:08:11;8.73;;;5.15;;
67442;SDS011;54311;51.726;5.154;2023-04-24T14:10:37;10.50;;;4.50;;
67442;SDS011;54311;51.726;5.154;2023-04-24T14:13:02;10.13;;;4.78;;
67442;SDS011;54311;51.726;5.154;2023-04-24T14:15:28;7.18;;;4.40;;
67442;SDS011;54311;51.726;5.154;2023-04-24T14:17:53;9.60;;;4.15;;
67442;SDS011;54311;51.726;5.154;2023-04-24T14:20:18;11.25;;;5.00;;
67442;SDS011;54311;51.726;5.154;2023-04-24T14:22:44;10.35;;;4.90;;
67442;SDS011;54311;51.726;5.154;2023-04-24T14:25:10;11.88;;;5.78;;
67442;SDS011;54311;51.726;5.154;2023-04-24T14:27:35;6.95;;;4.55;;
67442;SDS011;54311;51.726;5.154;2023-04-24T14:30:01;8.57;;;5.18;;
67442;SDS011;54311;51.726;5.154;2023-04-24T14:32:26;6.07;;;4.75;;
67442;SDS011;54311;51.726;5.154;2023-04-24T14:34:51;9.50;;;4.65;;
67442;SDS011;54311;51.726;5.154;2023-04-24T14:37:17;6.68;;;5.15;;
67442;SDS011;54311;51.726;5.154;2023-04-24T14:39:42;6.32;;;4.93;;